CFG7MD LGRP-EDDH
Flight info
| Callsign | CFG7MD |
|---|---|
| Flight time | 3h 23m |
| Altitude | 34000 |
| Route | VANES UM601 ADESO UN133 RIGRO DCT FSK DCT DISOR DCT LONTA UL608 DOLEV/N0447F360 DCT LURID DCT PETOV DCT LAMSI DCT ARMUT DCT ABGUS DCT DIRBO/N0387F230 T902 RARUP RARUP3P |
| Aircraft | A21N/M-SBDE3FGHIJ1J4J7LORVWXYZ/SB2D1G1 |
Departure
| Time | 2026-04-26 13:19 |
|---|---|
| Airport | Rhodes International Airport "Diagoras" (LGRP) |
Arrival
| Time | 2026-04-26 16:43 |
|---|---|
| Airport | Hamburg Helmut Schmidt Airport (EDDH) |
| Time | Latitude | Longitude | Altitude | Speed | Heading |
|---|---|---|---|---|---|
| 2026-04-26 12:33 | 36.40337 | 28.09027 | 33 ft | 0 kts | 160° |
| 2026-04-26 13:08 | 36.40351 | 28.09020 | 33 ft | 4 kts | 160° |
| 2026-04-26 13:08 | 36.40377 | 28.09008 | 33 ft | 4 kts | 160° |
| 2026-04-26 13:08 | 36.40403 | 28.08997 | 34 ft | 4 kts | 160° |
| 2026-04-26 13:09 | 36.40418 | 28.08990 | 34 ft | 0 kts | 160° |
| 2026-04-26 13:11 | 36.40409 | 28.08999 | 34 ft | 8 kts | 127° |
| 2026-04-26 13:11 | 36.40419 | 28.09066 | 33 ft | 6 kts | 70° |
| 2026-04-26 13:11 | 36.40424 | 28.09087 | 33 ft | 0 kts | 71° |
| 2026-04-26 13:13 | 36.40426 | 28.09092 | 33 ft | 2 kts | 71° |
| 2026-04-26 13:13 | 36.40436 | 28.09128 | 33 ft | 7 kts | 71° |
| 2026-04-26 13:13 | 36.40458 | 28.09201 | 33 ft | 11 kts | 69° |
| 2026-04-26 13:13 | 36.40489 | 28.09308 | 34 ft | 15 kts | 65° |
| 2026-04-26 13:14 | 36.40567 | 28.09395 | 34 ft | 16 kts | 42° |
| 2026-04-26 13:14 | 36.40612 | 28.09493 | 34 ft | 11 kts | 71° |
| 2026-04-26 13:14 | 36.40640 | 28.09593 | 34 ft | 13 kts | 69° |
| 2026-04-26 13:14 | 36.40674 | 28.09706 | 34 ft | 15 kts | 69° |
| 2026-04-26 13:15 | 36.40710 | 28.09824 | 33 ft | 14 kts | 70° |
| 2026-04-26 13:15 | 36.40745 | 28.09946 | 33 ft | 16 kts | 71° |
| 2026-04-26 13:15 | 36.40782 | 28.10080 | 33 ft | 17 kts | 71° |
| 2026-04-26 13:15 | 36.40811 | 28.10174 | 33 ft | 18 kts | 69° |
| 2026-04-26 13:16 | 36.40849 | 28.10302 | 33 ft | 10 kts | 70° |
| 2026-04-26 13:16 | 36.40874 | 28.10392 | 34 ft | 12 kts | 70° |
| 2026-04-26 13:16 | 36.40945 | 28.10431 | 33 ft | 11 kts | 335° |
| 2026-04-26 13:16 | 36.40959 | 28.10422 | 33 ft | 0 kts | 332° |
| 2026-04-26 13:17 | 36.40970 | 28.10414 | 33 ft | 5 kts | 327° |
| 2026-04-26 13:17 | 36.40999 | 28.10358 | 32 ft | 11 kts | 295° |
| 2026-04-26 13:18 | 36.41020 | 28.10264 | 33 ft | 0 kts | 249° |
| 2026-04-26 13:18 | 36.41014 | 28.10244 | 33 ft | 16 kts | 249° |
| 2026-04-26 13:19 | 36.40891 | 28.09828 | 32 ft | 87 kts | 251° |
| 2026-04-26 13:19 | 36.40615 | 28.08882 | 34 ft | 144 kts | 250° |
| 2026-04-26 13:19 | 36.40232 | 28.07586 | 224 ft | 168 kts | 250° |
| 2026-04-26 13:19 | 36.39858 | 28.06228 | 806 ft | 166 kts | 257° |
| 2026-04-26 13:20 | 36.39725 | 28.04774 | 1316 ft | 176 kts | 266° |
| 2026-04-26 13:20 | 36.39628 | 28.03195 | 1735 ft | 191 kts | 265° |
| 2026-04-26 13:20 | 36.39507 | 28.01481 | 2252 ft | 207 kts | 264° |
| 2026-04-26 13:20 | 36.39375 | 27.99665 | 2831 ft | 221 kts | 264° |
| 2026-04-26 13:21 | 36.39229 | 27.97646 | 3273 ft | 245 kts | 265° |
| 2026-04-26 13:21 | 36.39124 | 27.96211 | 3613 ft | 258 kts | 265° |
| 2026-04-26 13:21 | 36.38901 | 27.93172 | 4631 ft | 269 kts | 266° |
| 2026-04-26 13:21 | 36.38730 | 27.90844 | 5476 ft | 273 kts | 266° |
| 2026-04-26 13:22 | 36.38555 | 27.88473 | 6316 ft | 278 kts | 266° |
| 2026-04-26 13:22 | 36.38389 | 27.86057 | 7088 ft | 283 kts | 268° |
| 2026-04-26 13:22 | 36.38370 | 27.83619 | 7823 ft | 289 kts | 272° |
| 2026-04-26 13:22 | 36.38400 | 27.81092 | 8518 ft | 296 kts | 272° |
| 2026-04-26 13:23 | 36.38434 | 27.78510 | 9288 ft | 301 kts | 272° |
| 2026-04-26 13:23 | 36.38465 | 27.75890 | 10033 ft | 306 kts | 271° |
| 2026-04-26 13:23 | 36.38525 | 27.73180 | 10425 ft | 323 kts | 276° |
| 2026-04-26 13:23 | 36.38818 | 27.70366 | 10735 ft | 341 kts | 280° |
| 2026-04-26 13:24 | 36.39206 | 27.67380 | 11024 ft | 360 kts | 281° |
| 2026-04-26 13:24 | 36.39617 | 27.64241 | 11375 ft | 375 kts | 281° |
| 2026-04-26 13:24 | 36.40031 | 27.61005 | 12020 ft | 380 kts | 281° |
| 2026-04-26 13:24 | 36.40437 | 27.57783 | 12740 ft | 384 kts | 281° |
| 2026-04-26 13:25 | 36.40849 | 27.54492 | 13469 ft | 387 kts | 281° |
| 2026-04-26 13:25 | 36.41264 | 27.51168 | 14130 ft | 391 kts | 281° |
| 2026-04-26 13:25 | 36.41680 | 27.47811 | 14770 ft | 394 kts | 281° |
| 2026-04-26 13:25 | 36.42099 | 27.44438 | 15420 ft | 397 kts | 281° |
| 2026-04-26 13:26 | 36.42521 | 27.41036 | 16083 ft | 399 kts | 281° |
| 2026-04-26 13:26 | 36.42944 | 27.37614 | 16730 ft | 403 kts | 281° |
| 2026-04-26 13:26 | 36.43370 | 27.34161 | 17359 ft | 406 kts | 281° |
| 2026-04-26 13:26 | 36.43800 | 27.30675 | 17975 ft | 409 kts | 281° |
| 2026-04-26 13:27 | 36.44229 | 27.27195 | 18515 ft | 413 kts | 281° |
| 2026-04-26 13:27 | 36.44662 | 27.23653 | 19047 ft | 416 kts | 281° |
| 2026-04-26 13:27 | 36.45101 | 27.20064 | 19594 ft | 420 kts | 281° |
| 2026-04-26 13:27 | 36.45539 | 27.16469 | 20125 ft | 422 kts | 282° |
| 2026-04-26 13:28 | 36.45829 | 27.14076 | 20486 ft | 424 kts | 282° |
| 2026-04-26 13:28 | 36.46269 | 27.10437 | 21024 ft | 427 kts | 282° |
| 2026-04-26 13:28 | 36.46709 | 27.06788 | 21538 ft | 429 kts | 282° |
| 2026-04-26 13:28 | 36.47155 | 27.03107 | 22032 ft | 432 kts | 282° |
| 2026-04-26 13:29 | 36.47756 | 26.98190 | 22671 ft | 437 kts | 282° |
| 2026-04-26 13:29 | 36.48066 | 26.95656 | 22983 ft | 439 kts | 282° |
| 2026-04-26 13:29 | 36.48526 | 26.91884 | 23456 ft | 442 kts | 282° |
| 2026-04-26 13:29 | 36.48980 | 26.88128 | 23854 ft | 446 kts | 282° |
| 2026-04-26 13:30 | 36.49434 | 26.84291 | 24233 ft | 448 kts | 282° |
| 2026-04-26 13:30 | 36.49891 | 26.80432 | 24638 ft | 451 kts | 282° |
| 2026-04-26 13:30 | 36.50344 | 26.76613 | 25033 ft | 453 kts | 282° |
| 2026-04-26 13:30 | 36.50805 | 26.72717 | 25436 ft | 456 kts | 282° |
| 2026-04-26 13:31 | 36.51267 | 26.68802 | 25816 ft | 458 kts | 282° |
| 2026-04-26 13:31 | 36.51729 | 26.64862 | 26209 ft | 461 kts | 282° |
| 2026-04-26 13:31 | 36.52203 | 26.60914 | 26588 ft | 462 kts | 284° |
| 2026-04-26 13:31 | 36.53015 | 26.57069 | 26957 ft | 458 kts | 295° |
| 2026-04-26 13:32 | 36.54424 | 26.53556 | 27319 ft | 451 kts | 307° |
| 2026-04-26 13:32 | 36.56341 | 26.50566 | 27690 ft | 445 kts | 319° |
| 2026-04-26 13:32 | 36.58711 | 26.48134 | 28059 ft | 439 kts | 331° |
| 2026-04-26 13:32 | 36.61377 | 26.46330 | 28534 ft | 434 kts | 338° |
| 2026-04-26 13:33 | 36.64104 | 26.44753 | 29019 ft | 432 kts | 339° |
| 2026-04-26 13:33 | 36.66831 | 26.43187 | 29503 ft | 430 kts | 339° |
| 2026-04-26 13:33 | 36.69536 | 26.41619 | 29967 ft | 429 kts | 339° |
| 2026-04-26 13:33 | 36.72240 | 26.40043 | 30366 ft | 427 kts | 339° |
| 2026-04-26 13:34 | 36.74939 | 26.38462 | 30705 ft | 427 kts | 339° |
| 2026-04-26 13:34 | 36.77626 | 26.36883 | 31032 ft | 426 kts | 339° |
| 2026-04-26 13:34 | 36.80281 | 26.35323 | 31363 ft | 426 kts | 339° |
| 2026-04-26 13:34 | 36.82099 | 26.34255 | 31589 ft | 425 kts | 338° |
| 2026-04-26 13:35 | 36.85647 | 26.32167 | 32031 ft | 424 kts | 338° |
| 2026-04-26 13:35 | 36.88320 | 26.30590 | 32358 ft | 423 kts | 338° |
| 2026-04-26 13:35 | 36.90950 | 26.29040 | 32665 ft | 422 kts | 338° |
| 2026-04-26 13:35 | 36.93612 | 26.27470 | 32967 ft | 421 kts | 338° |
| 2026-04-26 13:36 | 36.96268 | 26.25902 | 33264 ft | 421 kts | 338° |
| 2026-04-26 13:36 | 36.98888 | 26.24348 | 33541 ft | 420 kts | 338° |
| 2026-04-26 13:36 | 37.01522 | 26.22750 | 33815 ft | 419 kts | 337° |
| 2026-04-26 13:36 | 37.04144 | 26.21147 | 33997 ft | 419 kts | 337° |
| 2026-04-26 13:37 | 37.06764 | 26.19544 | 34008 ft | 419 kts | 337° |
| 2026-04-26 13:37 | 37.12008 | 26.16340 | 33986 ft | 418 kts | 337° |
| 2026-04-26 13:38 | 37.17205 | 26.13159 | 33996 ft | 418 kts | 337° |
| 2026-04-26 13:38 | 37.22435 | 26.09957 | 33994 ft | 418 kts | 337° |
| 2026-04-26 13:39 | 37.27670 | 26.06745 | 33981 ft | 418 kts | 337° |
| 2026-04-26 13:39 | 37.32911 | 26.03521 | 33991 ft | 419 kts | 337° |
| 2026-04-26 13:40 | 37.38129 | 26.00311 | 33996 ft | 420 kts | 337° |
| 2026-04-26 13:40 | 37.43378 | 25.97076 | 33995 ft | 420 kts | 336° |
| 2026-04-26 13:41 | 37.48632 | 25.93833 | 33984 ft | 420 kts | 336° |
| 2026-04-26 13:41 | 37.53875 | 25.90591 | 33991 ft | 419 kts | 336° |
| 2026-04-26 13:42 | 37.59104 | 25.87299 | 34001 ft | 420 kts | 333° |
| 2026-04-26 13:42 | 37.64102 | 25.83472 | 34000 ft | 422 kts | 331° |
| 2026-04-26 13:43 | 37.69106 | 25.79583 | 34000 ft | 422 kts | 331° |
| 2026-04-26 13:43 | 37.74077 | 25.75720 | 34005 ft | 422 kts | 331° |
| 2026-04-26 13:44 | 37.79071 | 25.71831 | 34006 ft | 422 kts | 331° |
| 2026-04-26 13:44 | 37.84067 | 25.67934 | 34006 ft | 421 kts | 331° |
| 2026-04-26 13:45 | 37.89066 | 25.64026 | 33995 ft | 422 kts | 331° |
| 2026-04-26 13:45 | 37.94059 | 25.60125 | 34006 ft | 421 kts | 330° |
| 2026-04-26 13:46 | 37.99019 | 25.56234 | 34003 ft | 421 kts | 330° |
| 2026-04-26 13:46 | 38.04014 | 25.52313 | 34004 ft | 422 kts | 330° |
| 2026-04-26 13:47 | 38.08981 | 25.48406 | 34011 ft | 422 kts | 330° |
| 2026-04-26 13:47 | 38.13977 | 25.44472 | 34014 ft | 422 kts | 330° |
| 2026-04-26 13:48 | 38.18970 | 25.40531 | 34014 ft | 422 kts | 330° |
| 2026-04-26 13:48 | 38.23933 | 25.36610 | 34017 ft | 422 kts | 330° |
| 2026-04-26 13:49 | 38.28926 | 25.32658 | 34005 ft | 422 kts | 329° |
| 2026-04-26 13:49 | 38.33910 | 25.28704 | 34063 ft | 421 kts | 329° |
| 2026-04-26 13:50 | 38.38862 | 25.24774 | 34272 ft | 421 kts | 329° |
| 2026-04-26 13:50 | 38.41364 | 25.22788 | 34391 ft | 421 kts | 329° |
| 2026-04-26 13:50 | 38.43855 | 25.20806 | 34511 ft | 421 kts | 329° |
| 2026-04-26 13:50 | 38.46345 | 25.18824 | 34633 ft | 422 kts | 329° |
| 2026-04-26 13:51 | 38.48832 | 25.16844 | 34754 ft | 422 kts | 329° |
| 2026-04-26 13:51 | 38.51321 | 25.14858 | 34874 ft | 422 kts | 329° |
| 2026-04-26 13:51 | 38.53784 | 25.12894 | 34998 ft | 422 kts | 329° |
| 2026-04-26 13:51 | 38.56278 | 25.10900 | 35123 ft | 422 kts | 329° |
| 2026-04-26 13:52 | 38.58771 | 25.08904 | 35242 ft | 421 kts | 329° |
| 2026-04-26 13:52 | 38.61257 | 25.06914 | 35366 ft | 422 kts | 329° |
| 2026-04-26 13:52 | 38.63722 | 25.04942 | 35492 ft | 422 kts | 329° |
| 2026-04-26 13:52 | 38.66212 | 25.02947 | 35615 ft | 421 kts | 329° |
| 2026-04-26 13:53 | 38.68707 | 25.00944 | 35738 ft | 421 kts | 328° |
| 2026-04-26 13:53 | 38.71190 | 24.98950 | 35856 ft | 421 kts | 328° |
| 2026-04-26 13:53 | 38.73673 | 24.96959 | 35977 ft | 420 kts | 328° |
| 2026-04-26 13:54 | 38.78613 | 24.92982 | 36047 ft | 419 kts | 328° |
| 2026-04-26 13:54 | 38.83518 | 24.89033 | 36028 ft | 418 kts | 328° |
| 2026-04-26 13:55 | 38.90090 | 24.83737 | 36024 ft | 418 kts | 328° |
| 2026-04-26 13:56 | 38.98277 | 24.77119 | 36024 ft | 417 kts | 328° |
| 2026-04-26 13:56 | 39.03197 | 24.73127 | 36024 ft | 417 kts | 328° |
| 2026-04-26 13:57 | 39.08079 | 24.69161 | 36026 ft | 416 kts | 327° |
| 2026-04-26 13:57 | 39.12977 | 24.65173 | 36024 ft | 416 kts | 327° |
| 2026-04-26 13:58 | 39.17877 | 24.61181 | 36024 ft | 416 kts | 327° |
| 2026-04-26 13:58 | 39.22742 | 24.57208 | 36024 ft | 416 kts | 327° |
| 2026-04-26 13:59 | 39.27632 | 24.53208 | 36024 ft | 416 kts | 327° |
| 2026-04-26 13:59 | 39.32526 | 24.49197 | 36027 ft | 416 kts | 327° |
| 2026-04-26 14:00 | 39.42265 | 24.41200 | 36025 ft | 415 kts | 327° |
| 2026-04-26 14:01 | 39.47144 | 24.37177 | 36021 ft | 415 kts | 326° |
| 2026-04-26 14:01 | 39.51988 | 24.33170 | 36021 ft | 415 kts | 326° |
| 2026-04-26 14:02 | 39.56868 | 24.29145 | 36021 ft | 415 kts | 327° |
| 2026-04-26 14:02 | 39.61710 | 24.25148 | 36018 ft | 414 kts | 326° |
| 2026-04-26 14:03 | 39.66577 | 24.21117 | 36018 ft | 414 kts | 326° |
| 2026-04-26 14:03 | 39.71438 | 24.17081 | 36018 ft | 414 kts | 326° |
| 2026-04-26 14:04 | 39.76272 | 24.13059 | 36015 ft | 414 kts | 326° |
| 2026-04-26 14:04 | 39.81134 | 24.09004 | 36015 ft | 414 kts | 326° |
| 2026-04-26 14:05 | 39.85993 | 24.04950 | 36011 ft | 414 kts | 326° |
| 2026-04-26 14:05 | 39.90818 | 24.00918 | 36011 ft | 415 kts | 326° |
| 2026-04-26 14:06 | 39.95683 | 23.96845 | 36010 ft | 414 kts | 326° |
| 2026-04-26 14:06 | 40.00534 | 23.92775 | 36007 ft | 415 kts | 326° |
| 2026-04-26 14:07 | 40.05382 | 23.88703 | 36006 ft | 415 kts | 326° |
| 2026-04-26 14:07 | 40.10231 | 23.84622 | 36006 ft | 414 kts | 325° |
| 2026-04-26 14:08 | 40.15054 | 23.80553 | 36000 ft | 414 kts | 325° |
| 2026-04-26 14:08 | 40.19897 | 23.76462 | 35995 ft | 414 kts | 325° |
| 2026-04-26 14:09 | 40.24705 | 23.72392 | 35996 ft | 414 kts | 325° |
| 2026-04-26 14:09 | 40.29548 | 23.68289 | 35991 ft | 414 kts | 325° |
| 2026-04-26 14:10 | 40.34393 | 23.64175 | 35992 ft | 414 kts | 325° |
| 2026-04-26 14:10 | 40.39202 | 23.60086 | 35986 ft | 414 kts | 325° |
| 2026-04-26 14:11 | 40.46456 | 23.53899 | 35983 ft | 414 kts | 325° |
| 2026-04-26 14:11 | 40.51265 | 23.49793 | 35985 ft | 414 kts | 325° |
| 2026-04-26 14:12 | 40.56098 | 23.45660 | 35985 ft | 414 kts | 325° |
| 2026-04-26 14:12 | 40.60899 | 23.41541 | 35976 ft | 413 kts | 324° |
| 2026-04-26 14:13 | 40.68128 | 23.35335 | 35975 ft | 413 kts | 324° |
| 2026-04-26 14:14 | 40.72952 | 23.31182 | 35973 ft | 413 kts | 324° |
| 2026-04-26 14:14 | 40.77746 | 23.27044 | 35969 ft | 413 kts | 324° |
| 2026-04-26 14:15 | 40.82571 | 23.22876 | 35983 ft | 413 kts | 324° |
| 2026-04-26 14:15 | 40.86570 | 23.19414 | 35978 ft | 413 kts | 324° |
| 2026-04-26 14:16 | 40.92171 | 23.14560 | 35974 ft | 413 kts | 324° |
| 2026-04-26 14:16 | 40.96953 | 23.10395 | 35971 ft | 413 kts | 324° |
| 2026-04-26 14:17 | 41.00982 | 23.06892 | 35974 ft | 414 kts | 324° |
| 2026-04-26 14:17 | 41.05801 | 23.02701 | 35975 ft | 414 kts | 324° |
| 2026-04-26 14:18 | 41.10401 | 22.98219 | 35977 ft | 411 kts | 314° |
| 2026-04-26 14:18 | 41.14147 | 22.92529 | 35966 ft | 409 kts | 308° |
| 2026-04-26 14:19 | 41.17806 | 22.86723 | 35975 ft | 409 kts | 309° |
| 2026-04-26 14:19 | 41.21470 | 22.80950 | 35965 ft | 409 kts | 309° |
| 2026-04-26 14:20 | 41.25143 | 22.75216 | 35962 ft | 410 kts | 310° |
| 2026-04-26 14:20 | 41.28982 | 22.69598 | 35984 ft | 410 kts | 311° |
| 2026-04-26 14:21 | 41.32840 | 22.63963 | 35977 ft | 411 kts | 311° |
| 2026-04-26 14:21 | 41.36657 | 22.58365 | 36004 ft | 411 kts | 310° |
| 2026-04-26 14:22 | 41.40504 | 22.52719 | 35978 ft | 411 kts | 310° |
| 2026-04-26 14:22 | 41.44344 | 22.47070 | 35997 ft | 410 kts | 310° |
| 2026-04-26 14:23 | 41.48173 | 22.41429 | 36000 ft | 411 kts | 310° |
| 2026-04-26 14:23 | 41.51994 | 22.35788 | 35986 ft | 412 kts | 310° |
| 2026-04-26 14:24 | 41.55835 | 22.30101 | 35999 ft | 412 kts | 310° |
| 2026-04-26 14:24 | 41.59655 | 22.24438 | 35984 ft | 412 kts | 310° |
| 2026-04-26 14:25 | 41.63495 | 22.18733 | 36008 ft | 412 kts | 310° |
| 2026-04-26 14:25 | 41.67321 | 22.13034 | 36004 ft | 411 kts | 310° |
| 2026-04-26 14:26 | 41.71149 | 22.07327 | 35998 ft | 412 kts | 310° |
| 2026-04-26 14:26 | 41.74973 | 22.01616 | 36005 ft | 412 kts | 310° |
| 2026-04-26 14:27 | 41.78785 | 21.95910 | 35998 ft | 412 kts | 310° |
| 2026-04-26 14:27 | 41.82588 | 21.90211 | 36003 ft | 412 kts | 310° |
| 2026-04-26 14:28 | 41.86415 | 21.84465 | 36017 ft | 412 kts | 310° |
| 2026-04-26 14:28 | 41.90245 | 21.78705 | 36011 ft | 413 kts | 310° |
| 2026-04-26 14:29 | 41.94054 | 21.72963 | 36031 ft | 415 kts | 310° |
| 2026-04-26 14:29 | 41.97897 | 21.67156 | 36028 ft | 415 kts | 310° |
| 2026-04-26 14:30 | 42.01739 | 21.61329 | 36017 ft | 415 kts | 310° |
| 2026-04-26 14:30 | 42.05551 | 21.55543 | 36020 ft | 416 kts | 310° |
| 2026-04-26 14:31 | 42.09388 | 21.49708 | 36042 ft | 416 kts | 310° |
| 2026-04-26 14:31 | 42.13222 | 21.43867 | 36032 ft | 416 kts | 310° |
| 2026-04-26 14:32 | 42.17049 | 21.38013 | 36039 ft | 415 kts | 309° |
| 2026-04-26 14:32 | 42.20771 | 21.32103 | 36065 ft | 416 kts | 309° |
| 2026-04-26 14:33 | 42.24518 | 21.26141 | 36061 ft | 416 kts | 309° |
| 2026-04-26 14:33 | 42.28269 | 21.20158 | 36060 ft | 416 kts | 309° |
| 2026-04-26 14:34 | 42.31990 | 21.14231 | 36079 ft | 416 kts | 309° |
| 2026-04-26 14:34 | 42.35749 | 21.08238 | 36080 ft | 418 kts | 309° |
| 2026-04-26 14:35 | 42.39519 | 21.02214 | 36079 ft | 419 kts | 309° |
| 2026-04-26 14:35 | 42.43255 | 20.96232 | 36088 ft | 419 kts | 309° |
| 2026-04-26 14:36 | 42.47007 | 20.90208 | 36082 ft | 418 kts | 309° |
| 2026-04-26 14:36 | 42.50763 | 20.84166 | 36084 ft | 418 kts | 309° |
| 2026-04-26 14:37 | 42.54511 | 20.78116 | 36080 ft | 419 kts | 309° |
| 2026-04-26 14:37 | 42.58257 | 20.72057 | 36073 ft | 420 kts | 309° |
| 2026-04-26 14:38 | 42.62000 | 20.65996 | 36073 ft | 420 kts | 309° |
| 2026-04-26 14:38 | 42.65765 | 20.59900 | 36078 ft | 420 kts | 309° |
| 2026-04-26 14:39 | 42.69517 | 20.53784 | 36076 ft | 420 kts | 309° |
| 2026-04-26 14:39 | 42.73244 | 20.47721 | 36077 ft | 420 kts | 309° |
| 2026-04-26 14:40 | 42.76999 | 20.41600 | 36093 ft | 422 kts | 309° |
| 2026-04-26 14:40 | 42.80762 | 20.35435 | 36091 ft | 422 kts | 309° |
| 2026-04-26 14:41 | 42.84698 | 20.29542 | 36097 ft | 423 kts | 317° |
| 2026-04-26 14:41 | 42.89116 | 20.24232 | 36099 ft | 423 kts | 317° |
| 2026-04-26 14:42 | 42.93523 | 20.18956 | 36102 ft | 423 kts | 317° |
| 2026-04-26 14:42 | 42.97935 | 20.13625 | 36099 ft | 423 kts | 317° |
| 2026-04-26 14:43 | 43.02361 | 20.08274 | 36101 ft | 424 kts | 317° |
| 2026-04-26 14:43 | 43.06762 | 20.02958 | 36105 ft | 424 kts | 317° |
| 2026-04-26 14:44 | 43.11187 | 19.97593 | 36103 ft | 424 kts | 317° |
| 2026-04-26 14:44 | 43.15592 | 19.92240 | 36101 ft | 424 kts | 317° |
| 2026-04-26 14:45 | 43.20016 | 19.86853 | 36102 ft | 425 kts | 317° |
| 2026-04-26 14:45 | 43.24447 | 19.81459 | 36096 ft | 425 kts | 317° |
| 2026-04-26 14:46 | 43.28840 | 19.76098 | 36097 ft | 425 kts | 317° |
| 2026-04-26 14:46 | 43.33266 | 19.70678 | 36095 ft | 426 kts | 317° |
| 2026-04-26 14:47 | 43.37691 | 19.65244 | 36102 ft | 426 kts | 317° |
| 2026-04-26 14:47 | 43.42092 | 19.59833 | 36100 ft | 425 kts | 317° |
| 2026-04-26 14:48 | 43.46476 | 19.54426 | 36099 ft | 425 kts | 317° |
| 2026-04-26 14:48 | 43.50904 | 19.48952 | 36108 ft | 427 kts | 317° |
| 2026-04-26 14:49 | 43.55331 | 19.43481 | 36103 ft | 427 kts | 317° |
| 2026-04-26 14:49 | 43.59732 | 19.38018 | 36103 ft | 427 kts | 317° |
| 2026-04-26 14:50 | 43.64159 | 19.32518 | 36098 ft | 427 kts | 317° |
| 2026-04-26 14:50 | 43.68546 | 19.27056 | 36107 ft | 427 kts | 317° |
| 2026-04-26 14:51 | 43.72968 | 19.21542 | 36104 ft | 428 kts | 317° |
| 2026-04-26 14:51 | 43.77390 | 19.16003 | 36111 ft | 427 kts | 317° |
| 2026-04-26 14:52 | 43.81776 | 19.10497 | 36103 ft | 428 kts | 317° |
| 2026-04-26 14:52 | 43.86178 | 19.04967 | 36111 ft | 428 kts | 317° |
| 2026-04-26 14:53 | 43.90609 | 18.99393 | 36112 ft | 429 kts | 317° |
| 2026-04-26 14:53 | 43.95038 | 18.93826 | 36114 ft | 429 kts | 317° |
| 2026-04-26 14:54 | 43.99441 | 18.88267 | 36116 ft | 429 kts | 317° |
| 2026-04-26 14:54 | 44.03850 | 18.82687 | 36108 ft | 427 kts | 317° |
| 2026-04-26 14:55 | 44.08210 | 18.77155 | 36103 ft | 427 kts | 317° |
| 2026-04-26 14:55 | 44.12616 | 18.71553 | 36108 ft | 428 kts | 317° |
| 2026-04-26 14:56 | 44.17015 | 18.65933 | 36112 ft | 428 kts | 317° |
| 2026-04-26 14:56 | 44.21411 | 18.60332 | 36112 ft | 428 kts | 317° |
| 2026-04-26 14:57 | 44.25780 | 18.54739 | 36118 ft | 428 kts | 317° |
| 2026-04-26 14:57 | 44.30145 | 18.49148 | 36126 ft | 426 kts | 316° |
| 2026-04-26 14:58 | 44.34515 | 18.43523 | 36125 ft | 427 kts | 316° |
| 2026-04-26 14:58 | 44.38884 | 18.37887 | 36126 ft | 427 kts | 316° |
| 2026-04-26 14:59 | 44.43232 | 18.32277 | 36121 ft | 427 kts | 316° |
| 2026-04-26 14:59 | 44.47611 | 18.26627 | 36118 ft | 428 kts | 316° |
| 2026-04-26 15:00 | 44.51986 | 18.20951 | 36119 ft | 428 kts | 316° |
| 2026-04-26 15:00 | 44.56352 | 18.15257 | 36121 ft | 428 kts | 316° |
| 2026-04-26 15:01 | 44.60708 | 18.09592 | 36120 ft | 428 kts | 316° |
| 2026-04-26 15:01 | 44.65075 | 18.03895 | 36122 ft | 428 kts | 316° |
| 2026-04-26 15:02 | 44.69408 | 17.98230 | 36119 ft | 428 kts | 316° |
| 2026-04-26 15:02 | 44.73771 | 17.92527 | 36120 ft | 428 kts | 316° |
| 2026-04-26 15:03 | 44.77389 | 17.87778 | 36127 ft | 427 kts | 316° |
| 2026-04-26 15:03 | 44.81729 | 17.82063 | 36122 ft | 427 kts | 316° |
| 2026-04-26 15:04 | 44.86073 | 17.76338 | 36122 ft | 427 kts | 316° |
| 2026-04-26 15:04 | 44.90384 | 17.70654 | 36121 ft | 426 kts | 316° |
| 2026-04-26 15:05 | 44.94709 | 17.64917 | 36118 ft | 426 kts | 316° |
| 2026-04-26 15:05 | 44.99037 | 17.59181 | 36120 ft | 426 kts | 316° |
| 2026-04-26 15:06 | 45.03368 | 17.53439 | 36122 ft | 426 kts | 316° |
| 2026-04-26 15:06 | 45.07667 | 17.47726 | 36123 ft | 426 kts | 316° |
| 2026-04-26 15:07 | 45.14196 | 17.39125 | 36121 ft | 426 kts | 319° |
| 2026-04-26 15:07 | 45.18725 | 17.33769 | 36125 ft | 426 kts | 319° |
| 2026-04-26 15:08 | 45.23282 | 17.28391 | 36123 ft | 426 kts | 319° |
| 2026-04-26 15:08 | 45.27814 | 17.23012 | 36132 ft | 426 kts | 319° |
| 2026-04-26 15:09 | 45.32352 | 17.17621 | 36129 ft | 424 kts | 319° |
| 2026-04-26 15:09 | 45.36888 | 17.12240 | 36138 ft | 424 kts | 319° |
| 2026-04-26 15:10 | 45.40647 | 17.07758 | 36134 ft | 424 kts | 319° |
| 2026-04-26 15:10 | 45.45935 | 17.01427 | 36141 ft | 424 kts | 319° |
| 2026-04-26 15:11 | 45.50430 | 16.96057 | 36148 ft | 424 kts | 319° |
| 2026-04-26 15:11 | 45.54954 | 16.90623 | 36152 ft | 424 kts | 319° |
| 2026-04-26 15:12 | 45.59442 | 16.85240 | 36146 ft | 422 kts | 319° |
| 2026-04-26 15:12 | 45.63951 | 16.79800 | 36151 ft | 424 kts | 318° |
| 2026-04-26 15:13 | 45.68440 | 16.74375 | 36152 ft | 424 kts | 318° |
| 2026-04-26 15:13 | 45.72954 | 16.68903 | 36142 ft | 424 kts | 318° |
| 2026-04-26 15:14 | 45.77436 | 16.63474 | 36160 ft | 423 kts | 318° |
| 2026-04-26 15:14 | 45.81928 | 16.58008 | 36149 ft | 423 kts | 318° |
| 2026-04-26 15:15 | 45.86416 | 16.52543 | 36155 ft | 423 kts | 318° |
| 2026-04-26 15:15 | 45.90911 | 16.47058 | 36158 ft | 423 kts | 318° |
| 2026-04-26 15:16 | 45.95366 | 16.41607 | 36160 ft | 423 kts | 318° |
| 2026-04-26 15:16 | 45.99853 | 16.36105 | 36172 ft | 423 kts | 318° |
| 2026-04-26 15:17 | 46.03584 | 16.31517 | 36164 ft | 424 kts | 318° |
| 2026-04-26 15:17 | 46.08811 | 16.25084 | 36159 ft | 424 kts | 318° |
| 2026-04-26 15:18 | 46.13295 | 16.19543 | 36155 ft | 424 kts | 318° |
| 2026-04-26 15:18 | 46.17784 | 16.13976 | 36163 ft | 424 kts | 317° |
| 2026-04-26 15:19 | 46.22247 | 16.08443 | 36162 ft | 425 kts | 317° |
| 2026-04-26 15:19 | 46.26727 | 16.02884 | 36168 ft | 424 kts | 317° |
| 2026-04-26 15:20 | 46.31249 | 15.97378 | 36163 ft | 425 kts | 322° |
| 2026-04-26 15:20 | 46.36114 | 15.92607 | 36177 ft | 425 kts | 324° |
| 2026-04-26 15:21 | 46.41042 | 15.87846 | 36173 ft | 425 kts | 324° |
| 2026-04-26 15:21 | 46.45959 | 15.83066 | 36168 ft | 425 kts | 324° |
| 2026-04-26 15:22 | 46.50877 | 15.78270 | 36179 ft | 425 kts | 324° |
| 2026-04-26 15:22 | 46.55753 | 15.73512 | 36169 ft | 425 kts | 324° |
| 2026-04-26 15:23 | 46.60655 | 15.68704 | 36171 ft | 425 kts | 324° |
| 2026-04-26 15:23 | 46.65565 | 15.63891 | 36177 ft | 424 kts | 324° |
| 2026-04-26 15:24 | 46.70437 | 15.59111 | 36170 ft | 424 kts | 323° |
| 2026-04-26 15:24 | 46.75321 | 15.54298 | 36181 ft | 421 kts | 323° |
| 2026-04-26 15:25 | 46.79344 | 15.50318 | 36171 ft | 420 kts | 323° |
| 2026-04-26 15:25 | 46.84977 | 15.44718 | 36169 ft | 420 kts | 323° |
| 2026-04-26 15:26 | 46.89828 | 15.39911 | 36170 ft | 420 kts | 323° |
| 2026-04-26 15:26 | 46.94658 | 15.35144 | 36172 ft | 420 kts | 323° |
| 2026-04-26 15:27 | 46.99506 | 15.30331 | 36175 ft | 422 kts | 323° |
| 2026-04-26 15:27 | 47.04368 | 15.25470 | 36171 ft | 423 kts | 323° |
| 2026-04-26 15:28 | 47.09236 | 15.20585 | 36166 ft | 423 kts | 323° |
| 2026-04-26 15:28 | 47.14107 | 15.15704 | 36157 ft | 424 kts | 323° |
| 2026-04-26 15:29 | 47.18945 | 15.10846 | 36160 ft | 423 kts | 323° |
| 2026-04-26 15:30 | 47.28678 | 15.01025 | 36157 ft | 426 kts | 323° |
| 2026-04-26 15:30 | 47.33583 | 14.96065 | 36152 ft | 426 kts | 323° |
| 2026-04-26 15:31 | 47.40916 | 14.88626 | 36158 ft | 426 kts | 323° |
| 2026-04-26 15:32 | 47.47422 | 14.82006 | 36183 ft | 426 kts | 322° |
| 2026-04-26 15:32 | 47.53086 | 14.76230 | 36173 ft | 424 kts | 322° |
| 2026-04-26 15:33 | 47.57920 | 14.71278 | 36187 ft | 424 kts | 322° |
| 2026-04-26 15:33 | 47.62776 | 14.66291 | 36193 ft | 424 kts | 322° |
| 2026-04-26 15:34 | 47.67640 | 14.61297 | 36197 ft | 424 kts | 322° |
| 2026-04-26 15:34 | 47.72464 | 14.56324 | 36228 ft | 424 kts | 322° |
| 2026-04-26 15:35 | 47.77309 | 14.51322 | 36204 ft | 423 kts | 322° |
| 2026-04-26 15:35 | 47.82160 | 14.46288 | 36193 ft | 424 kts | 322° |
| 2026-04-26 15:36 | 47.86985 | 14.41288 | 36198 ft | 424 kts | 322° |
| 2026-04-26 15:36 | 47.91814 | 14.36267 | 36202 ft | 423 kts | 322° |
| 2026-04-26 15:37 | 47.96646 | 14.31231 | 36202 ft | 423 kts | 322° |
| 2026-04-26 15:37 | 48.01457 | 14.26203 | 36203 ft | 424 kts | 322° |
| 2026-04-26 15:38 | 48.06292 | 14.21134 | 36202 ft | 424 kts | 322° |
| 2026-04-26 15:38 | 48.11115 | 14.16071 | 36201 ft | 424 kts | 322° |
| 2026-04-26 15:39 | 48.15961 | 14.10964 | 36202 ft | 424 kts | 322° |
| 2026-04-26 15:39 | 48.19159 | 14.07600 | 36202 ft | 424 kts | 322° |
| 2026-04-26 15:40 | 48.25608 | 14.00797 | 36210 ft | 424 kts | 322° |
| 2026-04-26 15:40 | 48.30402 | 13.95705 | 36203 ft | 424 kts | 321° |
| 2026-04-26 15:41 | 48.35223 | 13.90582 | 36207 ft | 424 kts | 322° |
| 2026-04-26 15:41 | 48.40013 | 13.85495 | 36211 ft | 424 kts | 321° |
| 2026-04-26 15:42 | 48.44809 | 13.80369 | 36208 ft | 424 kts | 321° |
| 2026-04-26 15:42 | 48.49644 | 13.75200 | 36223 ft | 423 kts | 321° |
| 2026-04-26 15:43 | 48.54424 | 13.70082 | 36210 ft | 422 kts | 321° |
| 2026-04-26 15:44 | 48.61602 | 13.62355 | 36211 ft | 422 kts | 321° |
| 2026-04-26 15:44 | 48.68683 | 13.54493 | 36211 ft | 421 kts | 320° |
| 2026-04-26 15:45 | 48.75674 | 13.46447 | 36223 ft | 421 kts | 319° |
| 2026-04-26 15:46 | 48.82684 | 13.38354 | 36219 ft | 421 kts | 319° |
| 2026-04-26 15:46 | 48.85797 | 13.34743 | 36187 ft | 420 kts | 319° |
| 2026-04-26 15:47 | 48.94302 | 13.24861 | 36229 ft | 420 kts | 319° |
| 2026-04-26 15:48 | 48.98928 | 13.19486 | 36245 ft | 420 kts | 319° |
| 2026-04-26 15:48 | 49.03582 | 13.14065 | 36232 ft | 420 kts | 319° |
| 2026-04-26 15:49 | 49.07433 | 13.09553 | 36236 ft | 420 kts | 319° |
| 2026-04-26 15:49 | 49.12073 | 13.04107 | 36235 ft | 421 kts | 319° |
| 2026-04-26 15:50 | 49.16691 | 12.98686 | 36248 ft | 421 kts | 319° |
| 2026-04-26 15:50 | 49.21334 | 12.93214 | 36251 ft | 421 kts | 319° |
| 2026-04-26 15:51 | 49.25982 | 12.87725 | 36269 ft | 420 kts | 319° |
| 2026-04-26 15:51 | 49.30574 | 12.82283 | 36255 ft | 420 kts | 319° |
| 2026-04-26 15:52 | 49.35194 | 12.76800 | 36264 ft | 419 kts | 319° |
| 2026-04-26 15:52 | 49.39820 | 12.71299 | 36259 ft | 420 kts | 319° |
| 2026-04-26 15:53 | 49.44411 | 12.65828 | 36259 ft | 419 kts | 319° |
| 2026-04-26 15:53 | 49.49025 | 12.60301 | 36254 ft | 420 kts | 319° |
| 2026-04-26 15:54 | 49.53643 | 12.54759 | 36265 ft | 421 kts | 319° |
| 2026-04-26 15:54 | 49.58239 | 12.49250 | 36261 ft | 420 kts | 319° |
| 2026-04-26 15:55 | 49.62864 | 12.43682 | 36252 ft | 420 kts | 319° |
| 2026-04-26 15:55 | 49.67450 | 12.38148 | 36254 ft | 420 kts | 319° |
| 2026-04-26 15:56 | 49.72166 | 12.32746 | 36256 ft | 424 kts | 326° |
| 2026-04-26 15:56 | 49.77619 | 12.29213 | 36279 ft | 428 kts | 336° |
| 2026-04-26 15:57 | 49.83242 | 12.26090 | 36274 ft | 428 kts | 336° |
| 2026-04-26 15:57 | 49.88807 | 12.22953 | 36274 ft | 428 kts | 336° |
| 2026-04-26 15:58 | 49.94402 | 12.19772 | 36277 ft | 428 kts | 336° |
| 2026-04-26 15:58 | 49.99993 | 12.16581 | 36278 ft | 428 kts | 336° |
| 2026-04-26 15:59 | 50.05582 | 12.13386 | 36282 ft | 427 kts | 336° |
| 2026-04-26 15:59 | 50.11135 | 12.10214 | 36291 ft | 427 kts | 336° |
| 2026-04-26 16:00 | 50.16712 | 12.07008 | 36290 ft | 427 kts | 336° |
| 2026-04-26 16:00 | 50.22262 | 12.03808 | 36291 ft | 427 kts | 336° |
| 2026-04-26 16:01 | 50.27840 | 12.00583 | 36299 ft | 427 kts | 336° |
| 2026-04-26 16:01 | 50.33408 | 11.97370 | 36290 ft | 427 kts | 336° |
| 2026-04-26 16:02 | 50.38990 | 11.94129 | 36293 ft | 427 kts | 336° |
| 2026-04-26 16:02 | 50.44575 | 11.90884 | 36295 ft | 427 kts | 336° |
| 2026-04-26 16:03 | 50.50150 | 11.87628 | 36302 ft | 427 kts | 336° |
| 2026-04-26 16:03 | 50.55694 | 11.84391 | 36308 ft | 427 kts | 336° |
| 2026-04-26 16:04 | 50.61267 | 11.81124 | 36317 ft | 427 kts | 336° |
| 2026-04-26 16:04 | 50.66846 | 11.77848 | 36317 ft | 427 kts | 336° |
| 2026-04-26 16:05 | 50.72391 | 11.74579 | 36310 ft | 427 kts | 336° |
| 2026-04-26 16:05 | 50.77964 | 11.71286 | 36320 ft | 427 kts | 336° |
| 2026-04-26 16:06 | 50.83531 | 11.67986 | 36315 ft | 427 kts | 336° |
| 2026-04-26 16:06 | 50.89059 | 11.64711 | 36315 ft | 427 kts | 336° |
| 2026-04-26 16:07 | 50.94634 | 11.61391 | 36314 ft | 427 kts | 336° |
| 2026-04-26 16:07 | 51.00200 | 11.58066 | 36331 ft | 427 kts | 336° |
| 2026-04-26 16:08 | 51.05727 | 11.54764 | 36323 ft | 426 kts | 336° |
| 2026-04-26 16:08 | 51.11280 | 11.51432 | 36321 ft | 426 kts | 336° |
| 2026-04-26 16:09 | 51.16838 | 11.48076 | 36322 ft | 426 kts | 336° |
| 2026-04-26 16:09 | 51.22353 | 11.44747 | 36318 ft | 426 kts | 336° |
| 2026-04-26 16:10 | 51.27905 | 11.41397 | 36326 ft | 425 kts | 336° |
| 2026-04-26 16:10 | 51.33447 | 11.38045 | 36325 ft | 425 kts | 336° |
| 2026-04-26 16:11 | 51.38979 | 11.34683 | 36319 ft | 425 kts | 336° |
| 2026-04-26 16:11 | 51.44478 | 11.31327 | 36316 ft | 425 kts | 336° |
| 2026-04-26 16:12 | 51.50021 | 11.27945 | 36319 ft | 425 kts | 336° |
| 2026-04-26 16:12 | 51.58328 | 11.22853 | 36315 ft | 425 kts | 336° |
| 2026-04-26 16:13 | 51.63812 | 11.19481 | 36315 ft | 425 kts | 336° |
| 2026-04-26 16:13 | 51.69361 | 11.16064 | 36312 ft | 425 kts | 336° |
| 2026-04-26 16:14 | 51.72193 | 11.14832 | 36312 ft | 429 kts | 347° |
| 2026-04-26 16:14 | 51.75166 | 11.14122 | 36315 ft | 430 kts | 349° |
| 2026-04-26 16:15 | 51.84029 | 11.12151 | 36314 ft | 429 kts | 348° |
| 2026-04-26 16:15 | 51.89952 | 11.10778 | 36317 ft | 430 kts | 348° |
| 2026-04-26 16:16 | 51.98831 | 11.08664 | 36186 ft | 425 kts | 348° |
| 2026-04-26 16:16 | 52.01767 | 11.07965 | 35366 ft | 426 kts | 347° |
| 2026-04-26 16:16 | 52.04678 | 11.07270 | 34504 ft | 429 kts | 347° |
| 2026-04-26 16:17 | 52.07648 | 11.06561 | 33551 ft | 431 kts | 347° |
| 2026-04-26 16:17 | 52.10627 | 11.05849 | 32632 ft | 432 kts | 347° |
| 2026-04-26 16:17 | 52.13608 | 11.05134 | 31818 ft | 431 kts | 347° |
| 2026-04-26 16:17 | 52.16548 | 11.04426 | 31061 ft | 433 kts | 347° |
| 2026-04-26 16:18 | 52.19532 | 11.03701 | 30318 ft | 431 kts | 348° |
| 2026-04-26 16:18 | 52.25438 | 11.02274 | 28642 ft | 425 kts | 347° |
| 2026-04-26 16:19 | 52.31224 | 11.00884 | 27051 ft | 418 kts | 347° |
| 2026-04-26 16:19 | 52.34099 | 11.00187 | 26297 ft | 415 kts | 347° |
| 2026-04-26 16:19 | 52.38805 | 10.99045 | 25279 ft | 405 kts | 347° |
| 2026-04-26 16:20 | 52.42524 | 10.98146 | 24606 ft | 402 kts | 347° |
| 2026-04-26 16:20 | 52.48277 | 10.96730 | 23647 ft | 425 kts | 348° |
| 2026-04-26 16:20 | 52.51190 | 10.96024 | 23115 ft | 420 kts | 348° |
| 2026-04-26 16:21 | 52.54070 | 10.95324 | 22569 ft | 416 kts | 348° |
| 2026-04-26 16:21 | 52.56931 | 10.94626 | 22036 ft | 412 kts | 348° |
| 2026-04-26 16:21 | 52.59756 | 10.93936 | 21513 ft | 408 kts | 348° |
| 2026-04-26 16:21 | 52.62523 | 10.93256 | 21006 ft | 405 kts | 348° |
| 2026-04-26 16:22 | 52.65301 | 10.92574 | 20503 ft | 401 kts | 348° |
| 2026-04-26 16:22 | 52.68055 | 10.91894 | 20006 ft | 398 kts | 348° |
| 2026-04-26 16:22 | 52.70786 | 10.91224 | 19524 ft | 395 kts | 348° |
| 2026-04-26 16:22 | 52.73503 | 10.90552 | 19031 ft | 392 kts | 348° |
| 2026-04-26 16:23 | 52.76193 | 10.89888 | 18571 ft | 388 kts | 348° |
| 2026-04-26 16:23 | 52.78836 | 10.89087 | 18029 ft | 382 kts | 341° |
| 2026-04-26 16:23 | 52.81319 | 10.87771 | 17512 ft | 378 kts | 338° |
| 2026-04-26 16:23 | 52.83805 | 10.86356 | 16991 ft | 375 kts | 338° |
| 2026-04-26 16:24 | 52.86272 | 10.84962 | 16472 ft | 373 kts | 339° |
| 2026-04-26 16:24 | 52.88701 | 10.83602 | 15973 ft | 370 kts | 339° |
| 2026-04-26 16:24 | 52.91132 | 10.82255 | 15473 ft | 367 kts | 339° |
| 2026-04-26 16:24 | 52.93548 | 10.80923 | 14992 ft | 365 kts | 339° |
| 2026-04-26 16:25 | 52.95951 | 10.79597 | 14511 ft | 362 kts | 339° |
| 2026-04-26 16:25 | 52.98342 | 10.78276 | 14027 ft | 360 kts | 339° |
| 2026-04-26 16:25 | 53.00714 | 10.76964 | 13496 ft | 357 kts | 340° |
| 2026-04-26 16:25 | 53.03037 | 10.75673 | 13009 ft | 354 kts | 340° |
| 2026-04-26 16:26 | 53.05373 | 10.74377 | 12599 ft | 352 kts | 340° |
| 2026-04-26 16:26 | 53.06914 | 10.73523 | 12336 ft | 350 kts | 340° |
| 2026-04-26 16:26 | 53.10014 | 10.71802 | 11820 ft | 349 kts | 340° |
| 2026-04-26 16:26 | 53.12305 | 10.70527 | 11454 ft | 347 kts | 340° |
| 2026-04-26 16:27 | 53.14593 | 10.69252 | 11304 ft | 346 kts | 340° |
| 2026-04-26 16:27 | 53.16874 | 10.67979 | 11285 ft | 346 kts | 340° |
| 2026-04-26 16:27 | 53.19157 | 10.66704 | 11293 ft | 346 kts | 340° |
| 2026-04-26 16:27 | 53.21414 | 10.65441 | 11314 ft | 346 kts | 340° |
| 2026-04-26 16:28 | 53.23701 | 10.64161 | 11329 ft | 346 kts | 340° |
| 2026-04-26 16:28 | 53.25989 | 10.62880 | 11325 ft | 346 kts | 340° |
| 2026-04-26 16:28 | 53.28274 | 10.61600 | 11330 ft | 344 kts | 340° |
| 2026-04-26 16:28 | 53.30545 | 10.60325 | 11340 ft | 344 kts | 340° |
| 2026-04-26 16:29 | 53.32821 | 10.59042 | 11328 ft | 344 kts | 340° |
| 2026-04-26 16:29 | 53.35089 | 10.57763 | 11311 ft | 344 kts | 340° |
| 2026-04-26 16:29 | 53.37336 | 10.56496 | 11323 ft | 344 kts | 340° |
| 2026-04-26 16:29 | 53.39605 | 10.55216 | 11312 ft | 344 kts | 340° |
| 2026-04-26 16:30 | 53.41878 | 10.53931 | 11308 ft | 344 kts | 340° |
| 2026-04-26 16:30 | 53.44145 | 10.52649 | 11309 ft | 344 kts | 340° |
| 2026-04-26 16:30 | 53.46415 | 10.51364 | 11353 ft | 344 kts | 340° |
| 2026-04-26 16:30 | 53.48661 | 10.50091 | 11220 ft | 343 kts | 340° |
| 2026-04-26 16:31 | 53.50917 | 10.48810 | 11148 ft | 337 kts | 340° |
| 2026-04-26 16:31 | 53.53069 | 10.47592 | 11097 ft | 315 kts | 340° |
| 2026-04-26 16:31 | 53.55081 | 10.46452 | 10948 ft | 295 kts | 340° |
| 2026-04-26 16:31 | 53.56966 | 10.45381 | 10800 ft | 276 kts | 340° |
| 2026-04-26 16:32 | 53.58730 | 10.44378 | 10654 ft | 259 kts | 340° |
| 2026-04-26 16:32 | 53.59840 | 10.43745 | 10555 ft | 249 kts | 340° |
| 2026-04-26 16:32 | 53.61960 | 10.42530 | 10288 ft | 235 kts | 340° |
| 2026-04-26 16:32 | 53.63477 | 10.41663 | 9879 ft | 232 kts | 340° |
| 2026-04-26 16:33 | 53.65002 | 10.40791 | 9399 ft | 231 kts | 340° |
| 2026-04-26 16:33 | 53.66537 | 10.39957 | 8914 ft | 231 kts | 347° |
| 2026-04-26 16:33 | 53.68146 | 10.40083 | 8402 ft | 236 kts | 15° |
| 2026-04-26 16:33 | 53.69554 | 10.41558 | 7892 ft | 243 kts | 44° |
| 2026-04-26 16:34 | 53.70584 | 10.43844 | 7416 ft | 245 kts | 53° |
| 2026-04-26 16:34 | 53.71518 | 10.46220 | 6950 ft | 245 kts | 54° |
| 2026-04-26 16:34 | 53.72456 | 10.48614 | 6467 ft | 244 kts | 53° |
| 2026-04-26 16:34 | 53.73656 | 10.50559 | 5957 ft | 237 kts | 26° |
| 2026-04-26 16:35 | 53.74673 | 10.51180 | 5625 ft | 233 kts | 7° |
| 2026-04-26 16:35 | 53.76730 | 10.50593 | 4971 ft | 229 kts | 328° |
| 2026-04-26 16:35 | 53.77549 | 10.49437 | 4668 ft | 227 kts | 308° |
| 2026-04-26 16:35 | 53.78200 | 10.47083 | 4282 ft | 223 kts | 278° |
| 2026-04-26 16:36 | 53.78207 | 10.44475 | 4016 ft | 223 kts | 265° |
| 2026-04-26 16:36 | 53.78066 | 10.41870 | 3978 ft | 220 kts | 264° |
| 2026-04-26 16:36 | 53.77914 | 10.39290 | 3979 ft | 221 kts | 264° |
| 2026-04-26 16:36 | 53.77759 | 10.36697 | 3979 ft | 223 kts | 264° |
| 2026-04-26 16:37 | 53.77606 | 10.34120 | 3984 ft | 223 kts | 264° |
| 2026-04-26 16:37 | 53.77450 | 10.31514 | 3987 ft | 223 kts | 264° |
| 2026-04-26 16:37 | 53.77240 | 10.28911 | 3977 ft | 224 kts | 254° |
| 2026-04-26 16:37 | 53.76600 | 10.26509 | 3959 ft | 224 kts | 239° |
| 2026-04-26 16:38 | 53.75684 | 10.24383 | 3778 ft | 224 kts | 228° |
| 2026-04-26 16:38 | 53.74663 | 10.22422 | 3516 ft | 222 kts | 231° |
| 2026-04-26 16:38 | 53.73651 | 10.20385 | 3216 ft | 227 kts | 232° |
| 2026-04-26 16:38 | 53.72677 | 10.18408 | 2886 ft | 215 kts | 232° |
| 2026-04-26 16:39 | 53.71765 | 10.16551 | 2632 ft | 195 kts | 233° |
| 2026-04-26 16:39 | 53.70925 | 10.14840 | 2401 ft | 182 kts | 232° |
| 2026-04-26 16:39 | 53.70136 | 10.13236 | 2129 ft | 173 kts | 234° |
| 2026-04-26 16:39 | 53.69395 | 10.11732 | 1920 ft | 156 kts | 234° |
| 2026-04-26 16:40 | 53.68759 | 10.10439 | 1691 ft | 132 kts | 234° |
| 2026-04-26 16:40 | 53.68180 | 10.09260 | 1491 ft | 132 kts | 234° |
| 2026-04-26 16:40 | 53.67594 | 10.08068 | 1314 ft | 132 kts | 233° |
| 2026-04-26 16:40 | 53.67010 | 10.06882 | 1133 ft | 131 kts | 234° |
| 2026-04-26 16:41 | 53.66428 | 10.05702 | 962 ft | 131 kts | 233° |
| 2026-04-26 16:41 | 53.65846 | 10.04517 | 776 ft | 130 kts | 236° |
| 2026-04-26 16:41 | 53.65277 | 10.03364 | 635 ft | 130 kts | 232° |
| 2026-04-26 16:41 | 53.64703 | 10.02197 | 430 ft | 128 kts | 236° |
| 2026-04-26 16:42 | 53.64130 | 10.01042 | 281 ft | 127 kts | 233° |
| 2026-04-26 16:42 | 53.63558 | 9.99899 | 100 ft | 127 kts | 235° |
| 2026-04-26 16:42 | 53.63025 | 9.98800 | 51 ft | 107 kts | 233° |
| 2026-04-26 16:42 | 53.62675 | 9.98068 | 47 ft | 56 kts | 232° |
| 2026-04-26 16:43 | 53.62536 | 9.97798 | 46 ft | 19 kts | 202° |
| 2026-04-26 16:43 | 53.62437 | 9.97833 | 49 ft | 13 kts | 123° |
| 2026-04-26 16:43 | 53.62430 | 9.97925 | 51 ft | 0 kts | 79° |
| 2026-04-26 16:44 | 53.62430 | 9.97928 | 51 ft | 2 kts | 79° |
| 2026-04-26 16:44 | 53.62437 | 9.97991 | 50 ft | 9 kts | 79° |
| 2026-04-26 16:45 | 53.62477 | 9.98121 | 52 ft | 16 kts | 50° |
| 2026-04-26 16:45 | 53.62552 | 9.98270 | 52 ft | 18 kts | 50° |
| 2026-04-26 16:45 | 53.62636 | 9.98440 | 52 ft | 20 kts | 50° |
| 2026-04-26 16:45 | 53.62728 | 9.98626 | 52 ft | 22 kts | 50° |
| 2026-04-26 16:46 | 53.62828 | 9.98831 | 52 ft | 23 kts | 50° |
| 2026-04-26 16:46 | 53.62932 | 9.99041 | 52 ft | 19 kts | 50° |
| 2026-04-26 16:46 | 53.63008 | 9.99193 | 52 ft | 14 kts | 50° |
| 2026-04-26 16:46 | 53.63052 | 9.99289 | 52 ft | 7 kts | 54° |
| 2026-04-26 16:47 | 53.63081 | 9.99360 | 52 ft | 3 kts | 55° |
| 2026-04-26 16:47 | 53.63082 | 9.99360 | 52 ft | 0 kts | 55° |
| 2026-04-26 16:47 | 53.63091 | 9.99383 | 52 ft | 6 kts | 55° |
| 2026-04-26 16:47 | 53.63128 | 9.99471 | 52 ft | 13 kts | 55° |
| 2026-04-26 16:48 | 53.63192 | 9.99612 | 53 ft | 17 kts | 50° |
| 2026-04-26 16:48 | 53.63279 | 9.99765 | 54 ft | 19 kts | 45° |
| 2026-04-26 16:48 | 53.63363 | 9.99931 | 54 ft | 12 kts | 50° |
| 2026-04-26 16:48 | 53.63404 | 10.00012 | 54 ft | 0 kts | 49° |
| 2026-04-26 16:50 | 53.63406 | 10.00016 | 54 ft | 3 kts | 49° |
| 2026-04-26 16:50 | 53.63428 | 10.00094 | 54 ft | 11 kts | 93° |
| 2026-04-26 16:50 | 53.63378 | 10.00161 | 54 ft | 10 kts | 172° |
| 2026-04-26 16:51 | 53.63322 | 10.00167 | 54 ft | 8 kts | 178° |
| 2026-04-26 16:51 | 53.63276 | 10.00173 | 54 ft | 0 kts | 169° |
| 2026-04-26 16:51 | 53.63269 | 10.00178 | 54 ft | 4 kts | 154° |
| 2026-04-26 16:51 | 53.63246 | 10.00243 | 54 ft | 9 kts | 101° |
| 2026-04-26 16:52 | 53.63244 | 10.00326 | 54 ft | 5 kts | 88° |
| 2026-04-26 16:52 | 53.63245 | 10.00345 | 54 ft | 0 kts | 85° |